THY9PJ LGAV-LTFM
Flight info
| Callsign | THY9PJ |
|---|---|
| Flight time | 1h 3m |
| Altitude | 39000 |
| Route | KRO UN604 INBET |
| Aircraft | B77W/H-SDE1E2E3FGHIJ2J3J4J5M1RWXY/LB1D1 |
Departure
| Time | 2026-05-05 14:32 |
|---|---|
| Airport | Athens Eleftherios Venizelos International Airport (LGAV) |
Arrival
| Time | 2026-05-05 15:35 |
|---|---|
| Airport | İstanbul Airport (LTFM) |
| Time | Latitude | Longitude | Altitude | Speed | Heading |
|---|---|---|---|---|---|
| 2026-05-05 14:09 | 37.93464 | 23.94697 | 308 ft | 0 kts | 307° |
| 2026-05-05 14:11 | 37.93459 | 23.94705 | 306 ft | 0 kts | 307° |
| 2026-05-05 14:21 | 37.93458 | 23.94705 | 306 ft | 1 kts | 307° |
| 2026-05-05 14:21 | 37.93445 | 23.94729 | 306 ft | 2 kts | 307° |
| 2026-05-05 14:21 | 37.93431 | 23.94751 | 305 ft | 4 kts | 310° |
| 2026-05-05 14:22 | 37.93413 | 23.94772 | 308 ft | 4 kts | 352° |
| 2026-05-05 14:22 | 37.93394 | 23.94763 | 303 ft | 4 kts | 37° |
| 2026-05-05 14:22 | 37.93375 | 23.94745 | 306 ft | 1 kts | 37° |
| 2026-05-05 14:22 | 37.93375 | 23.94744 | 306 ft | 0 kts | 37° |
| 2026-05-05 14:25 | 37.93378 | 23.94747 | 307 ft | 1 kts | 37° |
| 2026-05-05 14:25 | 37.93399 | 23.94768 | 308 ft | 10 kts | 37° |
| 2026-05-05 14:25 | 37.93502 | 23.94866 | 309 ft | 24 kts | 37° |
| 2026-05-05 14:26 | 37.93637 | 23.94995 | 309 ft | 25 kts | 37° |
| 2026-05-05 14:26 | 37.93773 | 23.95125 | 308 ft | 25 kts | 37° |
| 2026-05-05 14:26 | 37.93874 | 23.95275 | 306 ft | 19 kts | 69° |
| 2026-05-05 14:26 | 37.93853 | 23.95414 | 304 ft | 17 kts | 115° |
| 2026-05-05 14:27 | 37.93914 | 23.95531 | 305 ft | 19 kts | 36° |
| 2026-05-05 14:27 | 37.94046 | 23.95657 | 305 ft | 28 kts | 37° |
| 2026-05-05 14:27 | 37.94203 | 23.95807 | 305 ft | 28 kts | 37° |
| 2026-05-05 14:27 | 37.94361 | 23.95956 | 307 ft | 28 kts | 37° |
| 2026-05-05 14:28 | 37.94518 | 23.96105 | 306 ft | 28 kts | 37° |
| 2026-05-05 14:28 | 37.94675 | 23.96254 | 307 ft | 28 kts | 37° |
| 2026-05-05 14:28 | 37.94832 | 23.96403 | 307 ft | 28 kts | 37° |
| 2026-05-05 14:28 | 37.94989 | 23.96552 | 309 ft | 28 kts | 37° |
| 2026-05-05 14:29 | 37.95146 | 23.96700 | 310 ft | 27 kts | 37° |
| 2026-05-05 14:29 | 37.95282 | 23.96830 | 310 ft | 23 kts | 37° |
| 2026-05-05 14:29 | 37.95331 | 23.96877 | 310 ft | 0 kts | 37° |
| 2026-05-05 14:29 | 37.95341 | 23.96887 | 310 ft | 5 kts | 37° |
| 2026-05-05 14:30 | 37.95383 | 23.96966 | 311 ft | 15 kts | 93° |
| 2026-05-05 14:30 | 37.95297 | 23.97029 | 315 ft | 15 kts | 167° |
| 2026-05-05 14:30 | 37.95208 | 23.97033 | 316 ft | 9 kts | 206° |
| 2026-05-05 14:30 | 37.95159 | 23.96993 | 317 ft | 7 kts | 217° |
| 2026-05-05 14:31 | 37.95158 | 23.96992 | 317 ft | 0 kts | 217° |
| 2026-05-05 14:31 | 37.95157 | 23.96991 | 317 ft | 1 kts | 217° |
| 2026-05-05 14:31 | 37.95105 | 23.96942 | 316 ft | 27 kts | 217° |
| 2026-05-05 14:31 | 37.94715 | 23.96572 | 307 ft | 115 kts | 217° |
| 2026-05-05 14:32 | 37.93876 | 23.95766 | 394 ft | 176 kts | 216° |
| 2026-05-05 14:32 | 37.92914 | 23.94854 | 1340 ft | 171 kts | 217° |
| 2026-05-05 14:32 | 37.91932 | 23.93940 | 2081 ft | 182 kts | 213° |
| 2026-05-05 14:32 | 37.90674 | 23.93292 | 2487 ft | 208 kts | 200° |
| 2026-05-05 14:33 | 37.89285 | 23.92541 | 3064 ft | 225 kts | 210° |
| 2026-05-05 14:33 | 37.87861 | 23.91550 | 3709 ft | 241 kts | 211° |
| 2026-05-05 14:33 | 37.86372 | 23.90492 | 4429 ft | 256 kts | 211° |
| 2026-05-05 14:33 | 37.84803 | 23.89391 | 5413 ft | 257 kts | 211° |
| 2026-05-05 14:34 | 37.83216 | 23.88294 | 6386 ft | 263 kts | 211° |
| 2026-05-05 14:34 | 37.81588 | 23.87178 | 7282 ft | 268 kts | 211° |
| 2026-05-05 14:34 | 37.79939 | 23.86057 | 8235 ft | 271 kts | 211° |
| 2026-05-05 14:34 | 37.78221 | 23.85052 | 9070 ft | 277 kts | 196° |
| 2026-05-05 14:35 | 37.76272 | 23.84998 | 9885 ft | 286 kts | 167° |
| 2026-05-05 14:35 | 37.74458 | 23.86021 | 10727 ft | 289 kts | 142° |
| 2026-05-05 14:35 | 37.73136 | 23.87911 | 11585 ft | 288 kts | 116° |
| 2026-05-05 14:35 | 37.72222 | 23.90183 | 12487 ft | 293 kts | 114° |
| 2026-05-05 14:36 | 37.71295 | 23.92501 | 13551 ft | 298 kts | 114° |
| 2026-05-05 14:36 | 37.70337 | 23.94847 | 14534 ft | 303 kts | 114° |
| 2026-05-05 14:36 | 37.69355 | 23.97229 | 15419 ft | 310 kts | 114° |
| 2026-05-05 14:36 | 37.68341 | 23.99679 | 16346 ft | 317 kts | 114° |
| 2026-05-05 14:37 | 37.67315 | 24.02146 | 17256 ft | 325 kts | 114° |
| 2026-05-05 14:37 | 37.66254 | 24.04695 | 18202 ft | 332 kts | 114° |
| 2026-05-05 14:37 | 37.65169 | 24.07296 | 19045 ft | 338 kts | 114° |
| 2026-05-05 14:37 | 37.64062 | 24.09950 | 19883 ft | 345 kts | 114° |
| 2026-05-05 14:38 | 37.62930 | 24.12658 | 20719 ft | 352 kts | 114° |
| 2026-05-05 14:38 | 37.61779 | 24.15413 | 21564 ft | 358 kts | 114° |
| 2026-05-05 14:38 | 37.60604 | 24.18220 | 22410 ft | 365 kts | 114° |
| 2026-05-05 14:38 | 37.59414 | 24.21088 | 23237 ft | 369 kts | 110° |
| 2026-05-05 14:39 | 37.58726 | 24.24181 | 23870 ft | 366 kts | 86° |
| 2026-05-05 14:39 | 37.59019 | 24.27286 | 24563 ft | 353 kts | 63° |
| 2026-05-05 14:39 | 37.60107 | 24.29968 | 25381 ft | 338 kts | 44° |
| 2026-05-05 14:39 | 37.61707 | 24.32076 | 26193 ft | 329 kts | 30° |
| 2026-05-05 14:40 | 37.63624 | 24.33543 | 26966 ft | 319 kts | 15° |
| 2026-05-05 14:40 | 37.65705 | 24.34522 | 27762 ft | 320 kts | 12° |
| 2026-05-05 14:40 | 37.67829 | 24.35434 | 28527 ft | 325 kts | 11° |
| 2026-05-05 14:40 | 37.69980 | 24.36348 | 29345 ft | 328 kts | 11° |
| 2026-05-05 14:41 | 37.72147 | 24.37280 | 30136 ft | 331 kts | 11° |
| 2026-05-05 14:41 | 37.74334 | 24.38233 | 30757 ft | 335 kts | 12° |
| 2026-05-05 14:41 | 37.76555 | 24.39213 | 31324 ft | 341 kts | 12° |
| 2026-05-05 14:41 | 37.78818 | 24.40218 | 31819 ft | 347 kts | 12° |
| 2026-05-05 14:42 | 37.81106 | 24.41244 | 32426 ft | 350 kts | 12° |
| 2026-05-05 14:42 | 37.83413 | 24.42283 | 33048 ft | 353 kts | 12° |
| 2026-05-05 14:42 | 37.85704 | 24.43314 | 33602 ft | 356 kts | 12° |
| 2026-05-05 14:42 | 37.88080 | 24.44385 | 34091 ft | 361 kts | 12° |
| 2026-05-05 14:43 | 37.90430 | 24.45445 | 34515 ft | 365 kts | 12° |
| 2026-05-05 14:43 | 37.92829 | 24.46528 | 34943 ft | 368 kts | 12° |
| 2026-05-05 14:43 | 37.95254 | 24.47622 | 35371 ft | 371 kts | 12° |
| 2026-05-05 14:43 | 37.97689 | 24.48742 | 35778 ft | 375 kts | 16° |
| 2026-05-05 14:44 | 37.99985 | 24.50453 | 36088 ft | 394 kts | 33° |
| 2026-05-05 14:44 | 38.01915 | 24.53010 | 36446 ft | 407 kts | 42° |
| 2026-05-05 14:44 | 38.03726 | 24.55798 | 36775 ft | 412 kts | 43° |
| 2026-05-05 14:44 | 38.05539 | 24.58636 | 37079 ft | 416 kts | 43° |
| 2026-05-05 14:45 | 38.07372 | 24.61488 | 37456 ft | 418 kts | 43° |
| 2026-05-05 14:45 | 38.09226 | 24.64340 | 37855 ft | 420 kts | 43° |
| 2026-05-05 14:45 | 38.11102 | 24.67202 | 38204 ft | 422 kts | 42° |
| 2026-05-05 14:45 | 38.12993 | 24.70072 | 38529 ft | 425 kts | 42° |
| 2026-05-05 14:46 | 38.14898 | 24.72962 | 38824 ft | 428 kts | 42° |
| 2026-05-05 14:46 | 38.16818 | 24.75878 | 38969 ft | 434 kts | 43° |
| 2026-05-05 14:46 | 38.20712 | 24.81827 | 39046 ft | 437 kts | 43° |
| 2026-05-05 14:47 | 38.24561 | 24.87743 | 39044 ft | 431 kts | 43° |
| 2026-05-05 14:47 | 38.28357 | 24.93576 | 39050 ft | 429 kts | 43° |
| 2026-05-05 14:48 | 38.32162 | 24.99426 | 39045 ft | 429 kts | 43° |
| 2026-05-05 14:48 | 38.35963 | 25.05282 | 39067 ft | 430 kts | 43° |
| 2026-05-05 14:49 | 38.39781 | 25.11174 | 39056 ft | 432 kts | 43° |
| 2026-05-05 14:49 | 38.43589 | 25.17057 | 39061 ft | 434 kts | 43° |
| 2026-05-05 14:50 | 38.47445 | 25.23015 | 39060 ft | 436 kts | 43° |
| 2026-05-05 14:50 | 38.51309 | 25.29001 | 39066 ft | 437 kts | 44° |
| 2026-05-05 14:51 | 38.55182 | 25.35014 | 39066 ft | 439 kts | 44° |
| 2026-05-05 14:51 | 38.59060 | 25.41045 | 39059 ft | 439 kts | 44° |
| 2026-05-05 14:52 | 38.62912 | 25.47050 | 39051 ft | 439 kts | 44° |
| 2026-05-05 14:52 | 38.66786 | 25.53098 | 39060 ft | 439 kts | 44° |
| 2026-05-05 14:53 | 38.70646 | 25.59136 | 39048 ft | 438 kts | 44° |
| 2026-05-05 14:53 | 38.74492 | 25.65163 | 39050 ft | 436 kts | 45° |
| 2026-05-05 14:54 | 38.78330 | 25.71189 | 39047 ft | 435 kts | 45° |
| 2026-05-05 14:54 | 38.82148 | 25.77195 | 39065 ft | 434 kts | 45° |
| 2026-05-05 14:55 | 38.85961 | 25.83203 | 39053 ft | 434 kts | 45° |
| 2026-05-05 14:55 | 38.89744 | 25.89176 | 39046 ft | 434 kts | 45° |
| 2026-05-05 14:56 | 38.93545 | 25.95189 | 39054 ft | 434 kts | 45° |
| 2026-05-05 14:56 | 38.97347 | 26.01213 | 39062 ft | 434 kts | 46° |
| 2026-05-05 14:57 | 39.01150 | 26.07259 | 39050 ft | 435 kts | 46° |
| 2026-05-05 14:57 | 39.04958 | 26.13344 | 39046 ft | 436 kts | 46° |
| 2026-05-05 14:58 | 39.08762 | 26.19436 | 39041 ft | 437 kts | 46° |
| 2026-05-05 14:58 | 39.12571 | 26.25547 | 39059 ft | 437 kts | 46° |
| 2026-05-05 14:59 | 39.16381 | 26.31671 | 39050 ft | 438 kts | 46° |
| 2026-05-05 14:59 | 39.20187 | 26.37797 | 39045 ft | 437 kts | 46° |
| 2026-05-05 15:00 | 39.23699 | 26.42379 | 39041 ft | 428 kts | 34° |
| 2026-05-05 15:00 | 39.29411 | 26.47217 | 39057 ft | 420 kts | 25° |
| 2026-05-05 15:01 | 39.34481 | 26.50966 | 39038 ft | 421 kts | 29° |
| 2026-05-05 15:01 | 39.39305 | 26.55273 | 39032 ft | 421 kts | 31° |
| 2026-05-05 15:02 | 39.44094 | 26.59632 | 39035 ft | 421 kts | 31° |
| 2026-05-05 15:02 | 39.48895 | 26.63974 | 39047 ft | 421 kts | 30° |
| 2026-05-05 15:03 | 39.53715 | 26.68317 | 39044 ft | 422 kts | 30° |
| 2026-05-05 15:03 | 39.58508 | 26.72638 | 39048 ft | 423 kts | 31° |
| 2026-05-05 15:04 | 39.63334 | 26.76997 | 38973 ft | 421 kts | 30° |
| 2026-05-05 15:04 | 39.65728 | 26.79166 | 38640 ft | 418 kts | 30° |
| 2026-05-05 15:04 | 39.68097 | 26.81316 | 38225 ft | 414 kts | 30° |
| 2026-05-05 15:05 | 39.72021 | 26.84871 | 37517 ft | 407 kts | 30° |
| 2026-05-05 15:05 | 39.75083 | 26.87649 | 37017 ft | 403 kts | 30° |
| 2026-05-05 15:05 | 39.76600 | 26.89026 | 36705 ft | 402 kts | 30° |
| 2026-05-05 15:06 | 39.78892 | 26.91108 | 36200 ft | 401 kts | 30° |
| 2026-05-05 15:06 | 39.81172 | 26.93183 | 35828 ft | 397 kts | 30° |
| 2026-05-05 15:06 | 39.83419 | 26.95232 | 35508 ft | 392 kts | 30° |
| 2026-05-05 15:06 | 39.85643 | 26.97261 | 35168 ft | 388 kts | 30° |
| 2026-05-05 15:07 | 39.87843 | 26.99270 | 34806 ft | 385 kts | 30° |
| 2026-05-05 15:07 | 39.90031 | 27.01267 | 34421 ft | 382 kts | 30° |
| 2026-05-05 15:07 | 39.92178 | 27.03230 | 34042 ft | 379 kts | 30° |
| 2026-05-05 15:07 | 39.94330 | 27.05196 | 33647 ft | 377 kts | 30° |
| 2026-05-05 15:08 | 39.96469 | 27.07153 | 33213 ft | 371 kts | 30° |
| 2026-05-05 15:08 | 39.98542 | 27.09057 | 32477 ft | 361 kts | 30° |
| 2026-05-05 15:08 | 40.00590 | 27.10935 | 31508 ft | 358 kts | 30° |
| 2026-05-05 15:08 | 40.02626 | 27.12800 | 30573 ft | 355 kts | 30° |
| 2026-05-05 15:09 | 40.04635 | 27.14644 | 29658 ft | 351 kts | 30° |
| 2026-05-05 15:09 | 40.06611 | 27.16461 | 28763 ft | 344 kts | 30° |
| 2026-05-05 15:09 | 40.08550 | 27.18243 | 27894 ft | 338 kts | 31° |
| 2026-05-05 15:09 | 40.10465 | 27.20005 | 27003 ft | 334 kts | 31° |
| 2026-05-05 15:10 | 40.12373 | 27.21757 | 26429 ft | 336 kts | 31° |
| 2026-05-05 15:10 | 40.14272 | 27.23506 | 26174 ft | 331 kts | 31° |
| 2026-05-05 15:10 | 40.16138 | 27.25228 | 25928 ft | 326 kts | 30° |
| 2026-05-05 15:10 | 40.17989 | 27.26821 | 25562 ft | 318 kts | 21° |
| 2026-05-05 15:11 | 40.20076 | 27.27654 | 25128 ft | 312 kts | 4° |
| 2026-05-05 15:11 | 40.22232 | 27.27860 | 24791 ft | 309 kts | 0° |
| 2026-05-05 15:11 | 40.24373 | 27.27996 | 24466 ft | 305 kts | 4° |
| 2026-05-05 15:11 | 40.26385 | 27.28856 | 24019 ft | 314 kts | 29° |
| 2026-05-05 15:12 | 40.28036 | 27.30767 | 23634 ft | 321 kts | 45° |
| 2026-05-05 15:12 | 40.29363 | 27.33142 | 23277 ft | 322 kts | 51° |
| 2026-05-05 15:12 | 40.30574 | 27.35599 | 22957 ft | 320 kts | 52° |
| 2026-05-05 15:12 | 40.31770 | 27.38054 | 22607 ft | 318 kts | 52° |
| 2026-05-05 15:13 | 40.32955 | 27.40494 | 22261 ft | 316 kts | 52° |
| 2026-05-05 15:13 | 40.34130 | 27.42921 | 21923 ft | 315 kts | 52° |
| 2026-05-05 15:13 | 40.35298 | 27.45336 | 21584 ft | 313 kts | 52° |
| 2026-05-05 15:13 | 40.36460 | 27.47741 | 21268 ft | 311 kts | 52° |
| 2026-05-05 15:14 | 40.37612 | 27.50128 | 20959 ft | 309 kts | 52° |
| 2026-05-05 15:14 | 40.38759 | 27.52505 | 20627 ft | 307 kts | 52° |
| 2026-05-05 15:14 | 40.39898 | 27.54865 | 20297 ft | 305 kts | 52° |
| 2026-05-05 15:14 | 40.41032 | 27.57218 | 19993 ft | 304 kts | 52° |
| 2026-05-05 15:15 | 40.42160 | 27.59557 | 19678 ft | 303 kts | 52° |
| 2026-05-05 15:15 | 40.43285 | 27.61894 | 19376 ft | 301 kts | 52° |
| 2026-05-05 15:15 | 40.44400 | 27.64213 | 19085 ft | 300 kts | 52° |
| 2026-05-05 15:15 | 40.45495 | 27.66490 | 18790 ft | 298 kts | 52° |
| 2026-05-05 15:16 | 40.46600 | 27.68790 | 18499 ft | 297 kts | 52° |
| 2026-05-05 15:16 | 40.47696 | 27.71073 | 18158 ft | 295 kts | 52° |
| 2026-05-05 15:16 | 40.48791 | 27.73356 | 17827 ft | 293 kts | 52° |
| 2026-05-05 15:16 | 40.49876 | 27.75618 | 17525 ft | 292 kts | 52° |
| 2026-05-05 15:17 | 40.50954 | 27.77869 | 17214 ft | 290 kts | 53° |
| 2026-05-05 15:17 | 40.52029 | 27.80114 | 16910 ft | 289 kts | 53° |
| 2026-05-05 15:17 | 40.53099 | 27.82350 | 16598 ft | 288 kts | 53° |
| 2026-05-05 15:17 | 40.54158 | 27.84566 | 16304 ft | 286 kts | 53° |
| 2026-05-05 15:18 | 40.55217 | 27.86783 | 16012 ft | 285 kts | 53° |
| 2026-05-05 15:18 | 40.56265 | 27.88979 | 15706 ft | 283 kts | 53° |
| 2026-05-05 15:18 | 40.57310 | 27.91168 | 15429 ft | 282 kts | 53° |
| 2026-05-05 15:18 | 40.58350 | 27.93350 | 15141 ft | 281 kts | 53° |
| 2026-05-05 15:19 | 40.59384 | 27.95522 | 14862 ft | 279 kts | 53° |
| 2026-05-05 15:19 | 40.60413 | 27.97682 | 14582 ft | 278 kts | 53° |
| 2026-05-05 15:19 | 40.61437 | 27.99835 | 14309 ft | 277 kts | 54° |
| 2026-05-05 15:19 | 40.62445 | 28.01955 | 14027 ft | 276 kts | 54° |
| 2026-05-05 15:20 | 40.63459 | 28.04090 | 13765 ft | 274 kts | 54° |
| 2026-05-05 15:20 | 40.64469 | 28.06220 | 13418 ft | 275 kts | 54° |
| 2026-05-05 15:20 | 40.65501 | 28.08391 | 12833 ft | 284 kts | 54° |
| 2026-05-05 15:20 | 40.66556 | 28.10613 | 12409 ft | 287 kts | 54° |
| 2026-05-05 15:21 | 40.67617 | 28.12853 | 11987 ft | 290 kts | 54° |
| 2026-05-05 15:21 | 40.68692 | 28.15124 | 11578 ft | 292 kts | 54° |
| 2026-05-05 15:21 | 40.69765 | 28.17395 | 11247 ft | 291 kts | 54° |
| 2026-05-05 15:21 | 40.70817 | 28.19625 | 10962 ft | 289 kts | 53° |
| 2026-05-05 15:22 | 40.71871 | 28.21859 | 10672 ft | 287 kts | 53° |
| 2026-05-05 15:22 | 40.72923 | 28.24090 | 10376 ft | 285 kts | 53° |
| 2026-05-05 15:22 | 40.73967 | 28.26304 | 10088 ft | 283 kts | 53° |
| 2026-05-05 15:22 | 40.75003 | 28.28504 | 9796 ft | 281 kts | 53° |
| 2026-05-05 15:23 | 40.76014 | 28.30654 | 9651 ft | 269 kts | 53° |
| 2026-05-05 15:23 | 40.76990 | 28.32732 | 9465 ft | 264 kts | 53° |
| 2026-05-05 15:23 | 40.77950 | 28.34775 | 9278 ft | 259 kts | 53° |
| 2026-05-05 15:23 | 40.78896 | 28.36788 | 9001 ft | 258 kts | 53° |
| 2026-05-05 15:24 | 40.79843 | 28.38801 | 8695 ft | 258 kts | 53° |
| 2026-05-05 15:24 | 40.80785 | 28.40804 | 8423 ft | 257 kts | 53° |
| 2026-05-05 15:24 | 40.81725 | 28.42807 | 8149 ft | 256 kts | 53° |
| 2026-05-05 15:24 | 40.82663 | 28.44808 | 7878 ft | 255 kts | 53° |
| 2026-05-05 15:25 | 40.83598 | 28.46803 | 7597 ft | 255 kts | 53° |
| 2026-05-05 15:25 | 40.84519 | 28.48771 | 7338 ft | 254 kts | 53° |
| 2026-05-05 15:25 | 40.85450 | 28.50759 | 7066 ft | 254 kts | 53° |
| 2026-05-05 15:25 | 40.86374 | 28.52735 | 6804 ft | 253 kts | 53° |
| 2026-05-05 15:26 | 40.87299 | 28.54713 | 6532 ft | 253 kts | 53° |
| 2026-05-05 15:26 | 40.88221 | 28.56689 | 6261 ft | 252 kts | 53° |
| 2026-05-05 15:26 | 40.89115 | 28.58661 | 6073 ft | 246 kts | 58° |
| 2026-05-05 15:26 | 40.89730 | 28.60750 | 6073 ft | 241 kts | 66° |
| 2026-05-05 15:27 | 40.90230 | 28.62817 | 6047 ft | 230 kts | 67° |
| 2026-05-05 15:27 | 40.90719 | 28.64801 | 6112 ft | 228 kts | 66° |
| 2026-05-05 15:27 | 40.91226 | 28.66804 | 6124 ft | 229 kts | 66° |
| 2026-05-05 15:27 | 40.91818 | 28.68724 | 5956 ft | 223 kts | 50° |
| 2026-05-05 15:28 | 40.92983 | 28.69958 | 5754 ft | 216 kts | 25° |
| 2026-05-05 15:28 | 40.94256 | 28.70857 | 5535 ft | 220 kts | 26° |
| 2026-05-05 15:28 | 40.94964 | 28.71378 | 5419 ft | 219 kts | 26° |
| 2026-05-05 15:28 | 40.96281 | 28.72351 | 5193 ft | 215 kts | 26° |
| 2026-05-05 15:29 | 40.97584 | 28.73110 | 5051 ft | 202 kts | 9° |
| 2026-05-05 15:29 | 40.98997 | 28.73274 | 5017 ft | 207 kts | 1° |
| 2026-05-05 15:29 | 41.00447 | 28.73328 | 4998 ft | 208 kts | 359° |
| 2026-05-05 15:29 | 41.01883 | 28.73327 | 4987 ft | 203 kts | 358° |
| 2026-05-05 15:30 | 41.03277 | 28.73305 | 4853 ft | 200 kts | 358° |
| 2026-05-05 15:30 | 41.04662 | 28.73274 | 4592 ft | 198 kts | 358° |
| 2026-05-05 15:30 | 41.06027 | 28.73243 | 4321 ft | 195 kts | 358° |
| 2026-05-05 15:30 | 41.07365 | 28.73212 | 4059 ft | 193 kts | 358° |
| 2026-05-05 15:31 | 41.08729 | 28.73181 | 3805 ft | 194 kts | 358° |
| 2026-05-05 15:31 | 41.10063 | 28.73149 | 3545 ft | 194 kts | 358° |
| 2026-05-05 15:31 | 41.11410 | 28.73118 | 3280 ft | 192 kts | 359° |
| 2026-05-05 15:31 | 41.12724 | 28.73088 | 3037 ft | 186 kts | 358° |
| 2026-05-05 15:32 | 41.14000 | 28.73058 | 2776 ft | 181 kts | 359° |
| 2026-05-05 15:32 | 41.15246 | 28.73030 | 2542 ft | 179 kts | 359° |
| 2026-05-05 15:32 | 41.16504 | 28.73000 | 2300 ft | 182 kts | 359° |
| 2026-05-05 15:32 | 41.17772 | 28.72970 | 2042 ft | 182 kts | 359° |
| 2026-05-05 15:33 | 41.19031 | 28.72944 | 1802 ft | 180 kts | 359° |
| 2026-05-05 15:33 | 41.20249 | 28.72914 | 1551 ft | 167 kts | 359° |
| 2026-05-05 15:33 | 41.21346 | 28.72884 | 1339 ft | 150 kts | 359° |
| 2026-05-05 15:33 | 41.22327 | 28.72867 | 1162 ft | 137 kts | 360° |
| 2026-05-05 15:34 | 41.23287 | 28.72871 | 956 ft | 140 kts | 359° |
| 2026-05-05 15:34 | 41.24239 | 28.72825 | 742 ft | 135 kts | 359° |
| 2026-05-05 15:34 | 41.25179 | 28.72797 | 621 ft | 136 kts | 358° |
| 2026-05-05 15:34 | 41.26126 | 28.72770 | 408 ft | 137 kts | 360° |
| 2026-05-05 15:35 | 41.27041 | 28.72754 | 336 ft | 122 kts | 0° |
| 2026-05-05 15:35 | 41.27720 | 28.72742 | 337 ft | 71 kts | 358° |
| 2026-05-05 15:35 | 41.28009 | 28.72788 | 335 ft | 30 kts | 27° |
| 2026-05-05 15:35 | 41.28123 | 28.72872 | 336 ft | 14 kts | 30° |
| 2026-05-05 15:36 | 41.28139 | 28.72948 | 334 ft | 8 kts | 144° |
| 2026-05-05 15:36 | 41.28072 | 28.72962 | 334 ft | 12 kts | 175° |
| 2026-05-05 15:36 | 41.28043 | 28.72964 | 335 ft | 0 kts | 178° |
| 2026-05-05 15:36 | 41.28027 | 28.72965 | 337 ft | 5 kts | 178° |
| 2026-05-05 15:37 | 41.27986 | 28.72966 | 335 ft | 7 kts | 179° |
| 2026-05-05 15:37 | 41.27935 | 28.72967 | 337 ft | 8 kts | 179° |
| 2026-05-05 15:37 | 41.27874 | 28.72968 | 336 ft | 9 kts | 179° |
| 2026-05-05 15:37 | 41.27803 | 28.72969 | 334 ft | 11 kts | 179° |
| 2026-05-05 15:38 | 41.27724 | 28.72970 | 338 ft | 12 kts | 179° |
| 2026-05-05 15:38 | 41.27626 | 28.72971 | 335 ft | 17 kts | 179° |
| 2026-05-05 15:38 | 41.27477 | 28.72975 | 338 ft | 22 kts | 179° |
| 2026-05-05 15:38 | 41.27322 | 28.72979 | 336 ft | 22 kts | 179° |
| 2026-05-05 15:39 | 41.27166 | 28.72982 | 335 ft | 22 kts | 179° |
| 2026-05-05 15:39 | 41.27014 | 28.72985 | 334 ft | 17 kts | 179° |
| 2026-05-05 15:39 | 41.26953 | 28.73084 | 336 ft | 16 kts | 89° |
| 2026-05-05 15:39 | 41.26955 | 28.73258 | 337 ft | 20 kts | 89° |
| 2026-05-05 15:40 | 41.26957 | 28.73447 | 335 ft | 20 kts | 89° |
| 2026-05-05 15:40 | 41.26961 | 28.73633 | 339 ft | 20 kts | 88° |
| 2026-05-05 15:40 | 41.26964 | 28.73808 | 339 ft | 12 kts | 89° |
| 2026-05-05 15:40 | 41.26911 | 28.73874 | 337 ft | 13 kts | 178° |
| 2026-05-05 15:41 | 41.26828 | 28.73877 | 334 ft | 11 kts | 180° |
| 2026-05-05 15:41 | 41.26792 | 28.73817 | 336 ft | 8 kts | 265° |
| 2026-05-05 15:41 | 41.26792 | 28.73771 | 337 ft | 2 kts | 269° |
| 2026-05-05 15:41 | 41.26792 | 28.73763 | 336 ft | 0 kts | 269° |